createdAt,value
2018-09-28T00:01:08.443Z,87.77
2018-09-28T00:02:18.278Z,87.68
2018-09-28T00:03:28.134Z,87.77
2018-09-28T00:04:38.214Z,87.77
2018-09-28T00:05:48.280Z,87.77
2018-09-28T00:06:58.395Z,87.77
2018-09-28T00:08:08.212Z,87.77
2018-09-28T00:09:18.338Z,87.77
2018-09-28T00:10:28.164Z,87.68
2018-09-28T00:11:38.281Z,87.68
2018-09-28T00:12:48.356Z,87.77
2018-09-28T00:13:58.421Z,87.77
2018-09-28T00:15:11.083Z,87.39
2018-09-28T00:16:21.155Z,87.58
2018-09-28T00:17:31.286Z,87.77
2018-09-28T00:18:41.099Z,87.63
2018-09-28T00:19:51.206Z,87.58
2018-09-28T00:21:01.438Z,87.68
2018-09-28T00:22:11.509Z,87.39
2018-09-28T00:23:21.580Z,87.58
2018-09-28T00:24:31.663Z,87.77
2018-09-28T00:25:41.736Z,87.58
2018-09-28T00:26:51.901Z,87.39
2018-09-28T00:28:01.963Z,87.68
2018-09-28T00:29:12.059Z,87.96
2018-09-28T00:30:22.138Z,88.15
2018-09-28T00:31:32.202Z,88.34
2018-09-28T00:32:42.327Z,88.15
2018-09-28T00:33:52.135Z,88.15
2018-09-28T00:35:02.218Z,88.34
2018-09-28T00:36:12.291Z,88.34
2018-09-28T00:37:22.376Z,88.25
2018-09-28T00:38:31.703Z,88.2
2018-09-28T00:39:41.522Z,88.2
2018-09-28T00:40:51.592Z,88.2
2018-09-28T00:42:02.262Z,87.92
2018-09-28T00:43:12.345Z,87.63
2018-09-28T00:44:22.465Z,87.92
2018-09-28T00:45:32.528Z,87.92
2018-09-28T00:46:42.598Z,87.73
2018-09-28T00:47:52.679Z,87.82
2018-09-28T00:49:04.574Z,88.2
2018-09-28T00:50:14.504Z,88.2
2018-09-28T00:51:24.586Z,88.11
2018-09-28T00:52:34.667Z,88.11
2018-09-28T00:53:44.734Z,87.73
2018-09-28T00:54:54.809Z,87.54
2018-09-28T00:56:04.940Z,87.54
2018-09-28T00:57:14.755Z,87.63
2018-09-28T00:58:24.827Z,87.44
2018-09-28T00:59:34.889Z,87.82
2018-09-28T01:00:44.978Z,87.73
2018-09-28T01:01:55.065Z,87.73
2018-09-28T01:03:05.146Z,87.63
2018-09-28T01:04:14.951Z,87.54
2018-09-28T01:05:25.059Z,87.82
2018-09-28T01:06:35.140Z,87.54
2018-09-28T01:07:45.260Z,87.82
2018-09-28T01:08:55.072Z,87.63
2018-09-28T01:10:05.153Z,87.82
2018-09-28T01:11:14.972Z,87.73
2018-09-28T01:12:24.785Z,87.54
2018-09-28T01:13:34.863Z,87.73
2018-09-28T01:14:44.724Z,87.82
2018-09-28T01:15:54.788Z,87.63
2018-09-28T01:17:04.343Z,87.59
2018-09-28T01:18:14.169Z,87.59
2018-09-28T01:19:24.299Z,87.68
2018-09-28T01:20:34.390Z,87.78
2018-09-28T01:21:44.189Z,87.68
2018-09-28T01:22:54.260Z,87.3
2018-09-28T01:24:04.090Z,87.3
2018-09-28T01:25:14.168Z,87.49
2018-09-28T01:26:23.980Z,87.35
2018-09-28T01:27:34.067Z,87.3
2018-09-28T01:28:44.134Z,87.3
2018-09-28T01:29:54.208Z,87.35
2018-09-28T01:31:04.265Z,87.63
2018-09-28T01:32:14.349Z,87.68
2018-09-28T01:33:24.419Z,87.49
2018-09-28T01:34:34.314Z,87.3
2018-09-28T01:35:44.379Z,87.3
2018-09-28T01:36:54.280Z,87.3
2018-09-28T01:38:04.364Z,87.3
2018-09-28T01:39:14.177Z,87.49
2018-09-28T01:40:24.001Z,87.68
2018-09-28T01:41:34.095Z,87.68
2018-09-28T01:42:44.197Z,87.68
2018-09-28T01:43:54.069Z,87.68
2018-09-28T01:45:04.148Z,87.59
2018-09-28T01:46:13.987Z,87.68
2018-09-28T01:47:24.072Z,87.68
2018-09-28T01:48:34.299Z,87.59
2018-09-28T01:49:44.375Z,87.68
2018-09-28T01:50:54.443Z,87.68
2018-09-28T01:52:04.530Z,87.68
2018-09-28T01:53:14.711Z,87.68
2018-09-28T01:54:24.833Z,87.49
2018-09-28T01:55:34.906Z,87.59
2018-09-28T01:56:44.987Z,87.59
2018-09-28T01:57:55.056Z,87.49
2018-09-28T01:59:04.876Z,87.68
2018-09-28T02:00:14.728Z,87.68
2018-09-28T02:01:24.271Z,87.49
2018-09-28T02:02:34.163Z,87.59
2018-09-28T02:03:44.246Z,87.87
2018-09-28T02:04:54.306Z,87.87
2018-09-28T02:06:04.444Z,87.59
2018-09-28T02:07:14.542Z,87.78
2018-09-28T02:08:24.602Z,87.59
2018-09-28T02:09:34.681Z,87.4
2018-09-28T02:10:44.755Z,87.78
2018-09-28T02:11:54.327Z,87.49
2018-09-28T02:13:04.142Z,87.3
2018-09-28T02:14:13.960Z,87.78
2018-09-28T02:15:24.034Z,87.68
2018-09-28T02:16:33.838Z,87.68
2018-09-28T02:17:43.973Z,87.49
2018-09-28T02:18:54.041Z,87.68
2018-09-28T02:20:03.850Z,87.68
2018-09-28T02:21:13.925Z,87.68
2018-09-28T02:22:24.001Z,87.68
2018-09-28T02:23:33.824Z,87.78
2018-09-28T02:24:43.631Z,87.68
2018-09-28T02:25:53.696Z,87.78
2018-09-28T02:27:04.250Z,87.78
2018-09-28T02:28:14.337Z,87.68
2018-09-28T02:29:24.146Z,87.68
2018-09-28T02:30:34.218Z,87.68
2018-09-28T02:31:44.013Z,87.78
2018-09-28T02:32:54.089Z,87.68
2018-09-28T02:34:04.169Z,87.26
2018-09-28T02:35:14.235Z,87.26
2018-09-28T02:36:24.331Z,87.45
2018-09-28T02:37:34.398Z,87.78
2018-09-28T02:38:44.466Z,87.64
2018-09-28T02:39:54.552Z,87.64
2018-09-28T02:41:06.237Z,87.68
2018-09-28T02:42:16.309Z,87.54
2018-09-28T02:43:26.391Z,87.64
2018-09-28T02:44:35.955Z,87.64
2018-09-28T02:45:45.762Z,87.54
2018-09-28T02:46:55.628Z,87.54
2018-09-28T02:48:07.522Z,87.59
2018-09-28T02:49:17.066Z,87.54
2018-09-28T02:50:27.143Z,87.74
2018-09-28T02:51:37.197Z,87.54
2018-09-28T02:52:47.258Z,87.54
2018-09-28T02:53:57.325Z,87.54
2018-09-28T02:55:07.410Z,87.64
2018-09-28T02:56:17.236Z,87.74
2018-09-28T02:57:27.298Z,87.74
2018-09-28T02:58:37.094Z,87.74
2018-09-28T02:59:47.176Z,87.64
2018-09-28T03:00:56.975Z,87.74
2018-09-28T03:02:07.041Z,87.54
2018-09-28T03:34:05.798Z,82.23
2018-09-28T03:35:15.909Z,81.95
2018-09-28T03:36:26.025Z,82.86
2018-09-28T03:37:35.825Z,83.9
2018-09-28T03:38:45.890Z,84.76
2018-09-28T03:39:55.964Z,85.37
2018-09-28T03:41:06.026Z,86.09
2018-09-28T03:42:16.107Z,85.99
2018-09-28T03:43:26.172Z,86.42
2018-09-28T03:44:36.262Z,86.61
2018-09-28T03:45:46.397Z,87.37
2018-09-28T03:46:56.480Z,86.99
2018-09-28T03:48:06.575Z,87.7
2018-09-28T03:49:16.646Z,87.56
2018-09-28T03:50:26.793Z,87.41
2018-09-28T03:51:36.932Z,87.51
2018-09-28T03:52:46.742Z,87.51
2018-09-28T03:53:56.839Z,87.41
2018-09-28T03:55:06.688Z,87.46
2018-09-28T03:56:16.508Z,87.46
2018-09-28T03:57:26.319Z,87.46
2018-09-28T03:58:36.389Z,87.36
2018-09-28T03:59:46.194Z,87.36
2018-09-28T04:00:56.006Z,87.55
2018-09-28T04:02:06.834Z,87.84
2018-09-28T04:03:16.695Z,87.55
2018-09-28T04:04:26.772Z,87.6
2018-09-28T04:05:36.867Z,87.4
2018-09-28T04:06:46.950Z,87.5
2018-09-28T04:07:57.022Z,87.79
2018-09-28T04:09:07.232Z,87.4
2018-09-28T04:10:17.302Z,87.31
2018-09-28T04:11:27.382Z,87.5
2018-09-28T04:12:37.442Z,87.6
2018-09-28T04:13:47.274Z,87.6
2018-09-28T04:14:57.231Z,87.4
2018-09-28T04:16:07.493Z,87.5
2018-09-28T04:17:17.556Z,87.5
2018-09-28T04:18:27.627Z,87.6
2018-09-28T04:19:37.707Z,87.4
2018-09-28T04:20:47.806Z,87.88
2018-09-28T04:21:58.015Z,87.5
2018-09-28T04:23:09.264Z,87.69
2018-09-28T04:24:18.830Z,87.6
2018-09-28T04:25:28.640Z,87.4
2018-09-28T04:26:38.460Z,87.4
2018-09-28T04:27:48.555Z,87.6
2018-09-28T04:28:58.659Z,87.6
2018-09-28T04:30:08.995Z,87.5
2018-09-28T04:31:19.072Z,87.5
2018-09-28T04:32:28.894Z,87.6
2018-09-28T04:33:38.978Z,87.6
2018-09-28T04:34:49.047Z,87.69
2018-09-28T04:35:59.130Z,87.6
2018-09-28T04:37:10.284Z,87.6
2018-09-28T04:38:20.093Z,87.4
2018-09-28T04:39:30.169Z,87.6
2018-09-28T04:40:40.244Z,87.5
2018-09-28T04:41:50.313Z,87.6
2018-09-28T04:43:00.386Z,87.6
2018-09-28T04:44:10.470Z,87.5
2018-09-28T04:45:20.885Z,87.5
2018-09-28T04:46:31.152Z,87.5
2018-09-28T04:47:41.235Z,87.69
2018-09-28T04:48:51.321Z,87.5
2018-09-28T04:50:01.434Z,87.6
2018-09-28T04:51:11.509Z,87.5
2018-09-28T04:52:21.327Z,87.4
2018-09-28T04:53:31.397Z,87.69
2018-09-28T04:54:41.475Z,87.6
2018-09-28T04:55:51.274Z,87.79
2018-09-28T04:57:01.353Z,87.21
2018-09-28T04:58:11.435Z,87.79
2018-09-28T04:59:21.516Z,87.02
2018-09-28T05:00:31.601Z,87.02
2018-09-28T05:01:41.675Z,87.12
2018-09-28T05:02:50.959Z,87.12
2018-09-28T05:04:01.045Z,87.21
2018-09-28T05:05:11.117Z,86.83
2018-09-28T05:06:20.926Z,87.02
2018-09-28T05:07:30.994Z,87.21
2018-09-28T05:08:40.543Z,86.98
2018-09-28T05:09:50.364Z,87.16
2018-09-28T05:11:00.457Z,87.07
2018-09-28T05:12:10.262Z,87.07
2018-09-28T05:13:20.339Z,86.98
2018-09-28T05:14:30.142Z,87.07
2018-09-28T05:15:40.216Z,86.88
2018-09-28T05:16:50.040Z,87.07
2018-09-28T05:17:59.848Z,86.88
2018-09-28T05:19:10.122Z,86.88
2018-09-28T05:20:19.928Z,86.88
2018-09-28T05:21:30.007Z,87.07
2018-09-28T05:22:39.807Z,87.16
2018-09-28T05:23:49.344Z,87.16
2018-09-28T05:24:59.150Z,87.45
2018-09-28T05:26:09.251Z,87.54
2018-09-28T05:27:19.316Z,87.07
2018-09-28T05:28:28.855Z,86.78
2018-09-28T05:29:38.944Z,86.69
2018-09-28T05:30:56.856Z,86.69
2018-09-28T05:32:07.527Z,87.21
2018-09-28T05:33:18.379Z,86.63
2018-09-28T05:34:28.199Z,86.73
2018-09-28T05:35:38.273Z,86.63
2018-09-28T05:36:48.120Z,86.82
2018-09-28T05:37:58.204Z,86.82
2018-09-28T05:39:10.357Z,86.73
2018-09-28T05:40:20.520Z,87.02
2018-09-28T05:41:30.424Z,86.73
2018-09-28T05:42:39.949Z,86.92
2018-09-28T05:43:50.237Z,86.68
2018-09-28T05:45:00.575Z,86.49
2018-09-28T05:46:10.669Z,86.87
2018-09-28T05:47:20.653Z,86.68
2018-09-28T05:48:30.749Z,87.15
2018-09-28T05:49:40.826Z,86.68
2018-09-28T05:50:50.930Z,86.68
2018-09-28T05:52:00.749Z,86.68
2018-09-28T05:53:10.878Z,86.72
2018-09-28T05:54:20.692Z,86.82
2018-09-28T05:55:30.237Z,86.72
2018-09-28T05:56:40.303Z,86.91
2018-09-28T05:57:50.123Z,86.53
2018-09-28T05:59:00.249Z,86.72
2018-09-28T06:00:10.076Z,86.53
2018-09-28T06:01:19.893Z,86.34
2018-09-28T06:02:29.987Z,86.72
2018-09-28T06:03:39.811Z,86.38
2018-09-28T06:04:49.907Z,86.29
2018-09-28T06:05:59.469Z,87.24
2018-09-28T06:07:09.568Z,86.38
2018-09-28T06:08:19.639Z,86.19
2018-09-28T06:09:29.708Z,86.57
2018-09-28T06:10:39.253Z,86.57
2018-09-28T06:11:49.323Z,86.67
2018-09-28T06:12:59.134Z,87.15
2018-09-28T06:14:09.803Z,86.8
2018-09-28T06:15:19.889Z,87
2018-09-28T06:16:28.964Z,87.29
2018-09-28T06:17:38.759Z,86.9
2018-09-28T06:18:49.007Z,86.71
2018-09-28T06:19:59.411Z,86.71
2018-09-28T06:21:09.256Z,87.19
2018-09-28T06:22:19.394Z,87.09
2018-09-28T06:23:29.480Z,86.71
2018-09-28T06:24:39.563Z,87
2018-09-28T06:25:49.705Z,86.33
2018-09-28T06:27:00.072Z,86.47
2018-09-28T06:28:09.950Z,86.47
2018-09-28T06:29:20.090Z,86.28
2018-09-28T06:30:30.186Z,86.47
2018-09-28T06:31:40.254Z,87.04
2018-09-28T06:32:50.058Z,86.57
2018-09-28T06:33:59.873Z,87.43
2018-09-28T06:35:09.974Z,86.37
2018-09-28T06:36:20.096Z,86.61
2018-09-28T06:37:30.036Z,86.99
2018-09-28T06:38:40.128Z,87.08
2018-09-28T06:39:50.303Z,86.7
2018-09-28T06:41:00.392Z,86.51
2018-09-28T06:42:10.347Z,86.9
2018-09-28T06:43:20.657Z,86.9
2018-09-28T06:44:30.753Z,86.9
2018-09-28T06:45:41.006Z,87.13
2018-09-28T06:46:50.826Z,87.32
2018-09-28T06:48:01.112Z,87.03
2018-09-28T06:49:11.348Z,87.13
2018-09-28T06:50:21.431Z,87.13
2018-09-28T06:51:31.699Z,86.94
2018-09-28T06:52:41.767Z,87.23
2018-09-28T06:53:51.973Z,87.23
2018-09-28T06:55:02.144Z,86.65
2018-09-28T06:56:11.714Z,86.94
2018-09-28T06:57:21.529Z,87.17
2018-09-28T06:58:31.603Z,86.98
2018-09-28T06:59:41.736Z,87.17
2018-09-28T07:00:52.047Z,87.17
2018-09-28T07:02:02.129Z,87.08
2018-09-28T07:03:12.212Z,86.98
2018-09-28T07:04:22.024Z,86.88
2018-09-28T07:05:32.118Z,86.88
2018-09-28T07:06:42.230Z,87.37
2018-09-28T07:07:52.321Z,86.98
2018-09-28T07:09:03.288Z,86.79
2018-09-28T07:10:13.356Z,86.98
2018-09-28T07:11:23.438Z,86.6
2018-09-28T07:12:33.254Z,86.6
2018-09-28T07:13:43.325Z,86.6
2018-09-28T07:14:53.389Z,86.83
2018-09-28T07:16:03.735Z,87.6
2018-09-28T07:17:14.024Z,86.45
2018-09-28T07:18:24.333Z,87.21
2018-09-28T07:19:34.665Z,86.64
2018-09-28T07:20:44.878Z,86.83
2018-09-28T07:21:54.952Z,86.64
2018-09-28T07:23:05.019Z,86.54
2018-09-28T07:24:14.979Z,87.12
2018-09-28T07:25:25.016Z,87.02
2018-09-28T07:26:34.575Z,86.83
2018-09-28T07:27:43.851Z,86.83
2018-09-28T07:28:53.663Z,86.88
2018-09-28T07:30:04.414Z,86.97
2018-09-28T07:31:14.290Z,86.68
2018-09-28T07:32:24.194Z,86.88
2018-09-28T07:33:33.739Z,86.88
2018-09-28T07:34:43.542Z,86.97
2018-09-28T07:35:53.193Z,86.97
2018-09-28T07:37:03.687Z,86.78
2018-09-28T07:38:15.006Z,86.78
2018-09-28T07:39:25.099Z,86.68
2018-09-28T07:40:34.929Z,86.68
2018-09-28T07:41:44.860Z,86.92
2018-09-28T07:42:55.183Z,86.72
2018-09-28T07:44:04.751Z,86.72
2018-09-28T07:45:14.801Z,86.63
2018-09-28T07:46:24.920Z,86.72
2018-09-28T07:47:34.990Z,87.01
2018-09-28T07:48:45.173Z,87.01
2018-09-28T07:49:55.223Z,87.05
2018-09-28T07:51:05.327Z,87.05
2018-09-28T07:52:15.402Z,86.87
2018-09-28T07:53:25.235Z,86.38
2018-09-28T07:54:35.307Z,86.87
2018-09-28T07:55:45.481Z,86.77
2018-09-28T07:56:55.920Z,86.91
2018-09-28T07:58:05.771Z,86.91
2018-09-28T07:59:15.867Z,86.72
2018-09-28T08:00:25.708Z,86.91
2018-09-28T08:01:35.789Z,86.72
2018-09-28T08:02:45.871Z,87.01
2018-09-28T08:03:56.018Z,86.91
2018-09-28T08:05:06.735Z,87.01
2018-09-28T08:06:16.850Z,86.85
2018-09-28T08:07:26.933Z,87.01
2018-09-28T08:08:36.761Z,87.15
2018-09-28T08:09:46.859Z,86.47
2018-09-28T08:10:56.939Z,86.47
2018-09-28T08:12:07.017Z,87.05
2018-09-28T08:13:17.109Z,86.47
2018-09-28T08:14:27.178Z,86.85
2018-09-28T08:15:36.723Z,86.71
2018-09-28T08:16:46.806Z,86.71
2018-09-28T08:17:57.138Z,86.52
2018-09-28T08:19:06.892Z,86.9
2018-09-28T08:20:16.980Z,86.52
2018-09-28T08:21:26.543Z,86.71
2018-09-28T08:22:36.634Z,86.99
2018-09-28T08:23:46.717Z,86.61
2018-09-28T08:24:56.784Z,86.85
2018-09-28T08:26:06.922Z,86.75
2018-09-28T08:27:17.058Z,86.85
2018-09-28T08:28:27.138Z,86.65
2018-09-28T08:29:37.234Z,86.94
2018-09-28T08:30:47.067Z,86.56
2018-09-28T08:31:57.159Z,86.85
2018-09-28T08:33:06.969Z,86.56
2018-09-28T08:34:17.045Z,86.65
2018-09-28T08:35:26.858Z,86.65
2018-09-28T08:36:36.978Z,86.51
2018-09-28T08:37:47.197Z,86.6
2018-09-28T08:38:57.015Z,86.69
2018-09-28T08:40:06.838Z,86.6
2018-09-28T08:41:16.972Z,86.41
2018-09-28T08:42:27.056Z,86.79
2018-09-28T08:43:37.233Z,86.6
2018-09-28T08:44:47.730Z,86.07
2018-09-28T08:45:57.600Z,86.45
2018-09-28T08:47:07.747Z,86.07
2018-09-28T08:48:17.830Z,86.45
2018-09-28T08:49:27.933Z,86.93
2018-09-28T08:50:38.019Z,86.55
2018-09-28T08:51:47.829Z,86.45
2018-09-28T08:52:57.657Z,86.65
2018-09-28T08:54:07.460Z,86.45
2018-09-28T08:55:17.533Z,86.83
2018-09-28T08:56:27.677Z,86.65
2018-09-28T08:57:37.271Z,86.83
2018-09-28T08:58:47.176Z,86.55
2018-09-28T08:59:57.266Z,86.88
2018-09-28T09:01:07.352Z,86.78
2018-09-28T09:02:17.660Z,86.78
2018-09-28T09:03:27.745Z,86.78
2018-09-28T09:04:37.834Z,86.69
2018-09-28T09:05:47.913Z,86.63
2018-09-28T09:06:57.759Z,86.49
2018-09-28T09:08:08.001Z,86.4
2018-09-28T09:09:18.074Z,86.44
2018-09-28T09:10:28.153Z,86.73
2018-09-28T09:11:38.249Z,86.25
2018-09-28T09:12:48.067Z,86.73
2018-09-28T09:13:58.156Z,86.48
2018-09-28T09:15:08.228Z,86.19
2018-09-28T09:16:18.296Z,86.1
2018-09-28T09:17:27.860Z,86.29
2018-09-28T09:18:37.156Z,86.52
2018-09-28T09:19:47.231Z,86.43
2018-09-28T09:20:57.306Z,86.52
2018-09-28T09:22:07.435Z,86.52
2018-09-28T09:23:17.241Z,86.52
2018-09-28T09:32:35.060Z,86.57
2018-09-28T09:33:45.159Z,86.8
2018-09-28T09:34:55.269Z,87
2018-09-28T09:36:05.397Z,86.61
2018-09-28T09:37:15.629Z,86.71
2018-09-28T09:38:25.773Z,86.8
2018-09-28T09:39:35.856Z,86.9
2018-09-28T09:40:45.947Z,86.8
2018-09-28T09:41:56.026Z,86.56
2018-09-28T09:43:05.844Z,86.85
2018-09-28T09:44:15.995Z,86.75
2018-09-28T09:45:26.078Z,86.75
2018-09-28T09:46:36.165Z,86.36
2018-09-28T09:47:46.258Z,87.08
2018-09-28T09:48:56.339Z,86.41
2018-09-28T09:50:08.331Z,86.41
2018-09-28T09:51:18.432Z,86.51
2018-09-28T09:52:28.250Z,86.65
2018-09-28T09:53:38.061Z,86.65
2018-09-28T09:54:48.143Z,86.25
2018-09-28T09:55:58.221Z,86.55
2018-09-28T09:57:08.306Z,86.65
2018-09-28T09:58:18.237Z,86.4
2018-09-28T09:59:28.049Z,86.4
2018-09-28T10:00:37.862Z,86.4
2018-09-28T10:01:47.949Z,86.59
2018-09-28T10:02:58.037Z,86.98
2018-09-28T10:04:08.115Z,87.07
2018-09-28T10:05:18.197Z,86.78
2018-09-28T10:06:27.759Z,86.78
2018-09-28T10:07:37.897Z,86.98
2018-09-28T10:08:47.961Z,86.78
2018-09-28T10:09:58.031Z,87.12
2018-09-28T10:11:08.131Z,87.21
2018-09-28T10:12:18.412Z,86.88
2018-09-28T10:13:29.174Z,87.21
2018-09-28T10:14:38.982Z,87.12
2018-09-28T10:15:49.075Z,86.92
2018-09-28T10:16:59.156Z,86.54
2018-09-28T10:18:09.448Z,87.07
2018-09-28T10:19:19.718Z,86.73
2018-09-28T10:20:30.231Z,86.73
2018-09-28T10:21:40.072Z,87.02
2018-09-28T10:22:49.629Z,86.82
2018-09-28T10:23:59.716Z,86.68
2018-09-28T10:25:09.547Z,86.38
2018-09-28T10:26:19.375Z,86.58
2018-09-28T10:27:29.746Z,86.77
2018-09-28T10:28:40.091Z,86.68
2018-09-28T10:29:50.395Z,86.77
2018-09-28T10:31:00.534Z,86.68
2018-09-28T10:32:10.370Z,86.48
2018-09-28T10:33:20.473Z,86.77
2018-09-28T10:34:31.049Z,86.72
2018-09-28T10:35:40.677Z,86.96
2018-09-28T10:36:50.784Z,86.72
2018-09-28T10:38:01.747Z,86.62
2018-09-28T10:39:11.708Z,87.1
2018-09-28T10:40:22.232Z,86.91
2018-09-28T10:41:32.904Z,87.01
2018-09-28T10:42:42.725Z,87.1
2018-09-28T10:43:53.064Z,87.1
2018-09-28T10:45:03.119Z,87.2
2018-09-28T10:46:13.131Z,87.01
2018-09-28T10:47:23.251Z,86.66
2018-09-28T10:48:33.370Z,87.15
2018-09-28T10:49:43.449Z,87.05
2018-09-28T10:50:53.675Z,86.47
2018-09-28T10:52:04.361Z,87.05
2018-09-28T10:53:15.535Z,86.66
2018-09-28T10:54:25.424Z,87.05
2018-09-28T10:55:35.512Z,87.24
2018-09-28T10:56:45.328Z,87.05
2018-09-28T10:57:55.485Z,86.95
2018-09-28T10:59:07.588Z,87.15
2018-09-28T11:00:17.749Z,87.29
2018-09-28T11:01:28.081Z,86.66
2018-09-28T11:02:37.906Z,86.9
2018-09-28T11:03:47.885Z,86.71
2018-09-28T11:04:58.200Z,86.61
2018-09-28T11:06:08.322Z,86.41
2018-09-28T11:07:18.140Z,86.36
2018-09-28T11:08:28.049Z,86.46
2018-09-28T11:09:38.391Z,86.46
2018-09-28T11:10:49.027Z,86.36
2018-09-28T11:11:59.295Z,86.65
2018-09-28T11:13:08.846Z,86.94
2018-09-28T11:14:18.916Z,87.33
2018-09-28T11:15:29.197Z,86.75
2018-09-28T11:16:39.124Z,87.04
2018-09-28T11:17:49.251Z,86.69
2018-09-28T11:18:59.394Z,86.5
2018-09-28T11:20:10.008Z,86.69
2018-09-28T11:21:20.229Z,86.6
2018-09-28T11:22:30.699Z,86.5
2018-09-28T11:23:40.261Z,86.69
2018-09-28T11:24:50.340Z,86.74
2018-09-28T11:26:00.411Z,86.44
2018-09-28T11:27:10.316Z,86.54
2018-09-28T11:28:20.515Z,86.83
2018-09-28T11:29:30.602Z,86.64
2018-09-28T11:30:40.699Z,86.74
2018-09-28T11:31:50.781Z,86.74
2018-09-28T11:33:00.885Z,86.74
2018-09-28T11:34:11.041Z,87.07
2018-09-28T11:35:21.129Z,86.88
2018-09-28T11:36:31.227Z,86.78
2018-09-28T11:37:41.450Z,86.88
2018-09-28T11:38:51.843Z,86.88
2018-09-28T11:40:01.943Z,86.88
2018-09-28T11:41:12.032Z,87.07
2018-09-28T11:42:22.152Z,86.78
2018-09-28T11:43:32.243Z,86.58
2018-09-28T11:44:42.346Z,86.78
2018-09-28T11:45:52.789Z,86.82
2018-09-28T11:47:03.463Z,86.63
2018-09-28T11:48:13.549Z,86.82
2018-09-28T11:49:23.650Z,86.63
2018-09-28T11:50:33.750Z,86.82
2018-09-28T11:51:43.693Z,86.72
2018-09-28T11:52:54.419Z,86.92
2018-09-28T11:54:05.194Z,87.02
2018-09-28T11:55:15.277Z,86.96
2018-09-28T11:56:25.124Z,87.06
2018-09-28T11:57:35.016Z,86.77
2018-09-28T11:58:44.969Z,86.96
2018-09-28T11:59:55.129Z,86.47
2018-09-28T12:01:07.051Z,86.77
2018-09-28T12:02:16.916Z,86.67
2018-09-28T12:03:27.341Z,86.47
2018-09-28T12:04:37.455Z,86.47
2018-09-28T12:05:47.558Z,86.96
2018-09-28T12:06:57.969Z,87.1
2018-09-28T12:08:08.554Z,87.01
2018-09-28T12:09:18.761Z,87.01
2018-09-28T12:10:29.273Z,86.81
2018-09-28T12:11:39.378Z,86.61
2018-09-28T12:12:49.728Z,86.77
2018-09-28T12:13:59.887Z,87.1
2018-09-28T12:15:09.759Z,86.81
2018-09-28T12:16:20.206Z,87.01
2018-09-28T12:17:30.289Z,87.01
2018-09-28T12:18:40.454Z,87.01
2018-09-28T12:19:50.980Z,87.01
2018-09-28T12:21:01.066Z,87.01
2018-09-28T12:22:11.313Z,86.81
2018-09-28T12:23:21.421Z,86.81
2018-09-28T12:24:31.576Z,86.91
2018-09-28T12:25:41.879Z,87.01
2018-09-28T12:26:51.718Z,86.71
2018-09-28T12:28:01.855Z,86.91
2018-09-28T12:29:11.932Z,87.1
2018-09-28T12:30:22.160Z,86.76
2018-09-28T12:31:32.735Z,86.95
2018-09-28T12:32:42.821Z,86.85
2018-09-28T12:33:52.693Z,86.95
2018-09-28T12:35:03.864Z,86.76
2018-09-28T12:36:14.085Z,86.76
2018-09-28T12:37:24.373Z,87.05
2018-09-28T12:38:34.468Z,87.15
2018-09-28T12:39:44.861Z,86.85
2018-09-28T12:40:55.077Z,86.95
2018-09-28T12:42:05.176Z,86.85
2018-09-28T12:43:15.402Z,87.05
2018-09-28T12:44:25.759Z,86.95
2018-09-28T12:45:35.831Z,87.53
2018-09-28T12:46:45.806Z,87.43
2018-09-28T12:47:55.667Z,87.82
2018-09-28T12:49:08.859Z,87.82
2018-09-28T12:50:18.820Z,87.59
2018-09-28T12:51:29.588Z,87.78
2018-09-28T12:52:39.445Z,87.39
2018-09-28T12:53:49.846Z,87.49
2018-09-28T12:55:00.094Z,87.39
2018-09-28T12:56:10.261Z,87.49
2018-09-28T12:57:20.388Z,87.49
2018-09-28T12:58:30.480Z,87.29
2018-09-28T12:59:40.315Z,87.15
2018-09-28T13:00:50.414Z,87.63
2018-09-28T13:02:01.280Z,86.95
2018-09-28T13:03:11.541Z,87.1
2018-09-28T13:04:21.669Z,87.53
2018-09-28T13:05:31.748Z,87.43
2018-09-28T13:06:41.721Z,87.2
2018-09-28T13:07:52.007Z,87.78
2018-09-28T13:09:01.954Z,87.59
2018-09-28T13:10:12.049Z,87.49
2018-09-28T13:11:21.882Z,87.39
2018-09-28T13:12:32.036Z,87.39
2018-09-28T13:13:42.375Z,87.39
2018-09-28T13:14:52.727Z,87.49
2018-09-28T13:16:03.775Z,87.39
2018-09-28T13:17:13.582Z,87.39
2018-09-28T13:18:23.913Z,87.39
2018-09-28T13:19:34.421Z,87.49
2018-09-28T13:20:44.448Z,87.68
2018-09-28T13:21:54.790Z,87.49
2018-09-28T13:23:04.910Z,87.2
2018-09-28T13:24:15.046Z,87.01
2018-09-28T13:25:25.346Z,87.49
2018-09-28T13:26:35.396Z,87.59
2018-09-28T13:27:45.760Z,87.59
2018-09-28T13:28:55.573Z,87.68
2018-09-28T13:30:05.734Z,87.59
2018-09-28T13:31:15.982Z,87.2
2018-09-28T13:32:26.259Z,87.2
2018-09-28T13:33:36.783Z,87.01
2018-09-28T13:34:46.322Z,87.1
2018-09-28T13:35:56.152Z,87.59
2018-09-28T13:37:06.251Z,87.68
2018-09-28T13:38:16.541Z,87.59
2018-09-28T13:39:26.904Z,87.59
2018-09-28T13:40:36.749Z,87.29
2018-09-28T13:41:46.824Z,87.54
2018-09-28T13:42:56.656Z,87.78
2018-09-28T13:44:06.570Z,87.45
2018-09-28T13:45:16.244Z,87.49
2018-09-28T13:46:26.283Z,87.59
2018-09-28T13:47:36.918Z,87.68
2018-09-28T13:48:46.920Z,87.59
2018-09-28T13:49:57.158Z,87.29
2018-09-28T13:51:07.310Z,87.39
2018-09-28T13:52:17.208Z,87.59
2018-09-28T13:53:27.530Z,87.54
2018-09-28T13:54:37.590Z,87.88
2018-09-28T13:55:47.963Z,87.88
2018-09-28T13:56:58.050Z,87.68
2018-09-28T13:58:08.185Z,87.68
2018-09-28T13:59:18.392Z,88.03
2018-09-28T14:00:28.762Z,87.68
2018-09-28T14:01:38.978Z,87.88
2018-09-28T14:02:49.226Z,87.74
2018-09-28T14:03:59.093Z,87.54
2018-09-28T14:05:09.174Z,88.03
2018-09-28T14:06:19.462Z,88.03
2018-09-28T14:07:30.054Z,87.84
2018-09-28T14:08:40.276Z,88.03
2018-09-28T14:09:50.441Z,87.84
2018-09-28T14:11:00.537Z,87.74
2018-09-28T14:12:10.697Z,87.93
2018-09-28T14:13:20.730Z,87.93
2018-09-28T14:14:30.908Z,87.84
2018-09-28T14:15:40.556Z,87.79
2018-09-28T14:16:51.011Z,87.79
2018-09-28T14:18:02.507Z,87.3
2018-09-28T14:19:12.831Z,87.4
2018-09-28T14:20:23.091Z,87.4
2018-09-28T14:21:33.592Z,87.79
2018-09-28T14:22:43.505Z,87.4
2018-09-28T14:23:53.850Z,88.09
2018-09-28T14:25:04.432Z,87.99
2018-09-28T14:26:14.597Z,87.99
2018-09-28T14:27:24.687Z,87.6
2018-09-28T14:28:34.822Z,87.95
2018-09-28T14:29:45.109Z,87.75
2018-09-28T14:30:54.821Z,87.85
2018-09-28T14:32:04.637Z,87.85
2018-09-28T14:33:14.935Z,88.04
2018-09-28T14:34:25.225Z,87.75
2018-09-28T14:35:35.655Z,87.95
2018-09-28T14:36:45.566Z,88.14
2018-09-28T14:37:56.048Z,88.04
2018-09-28T14:39:06.138Z,87.85
2018-09-28T14:40:16.367Z,88.43
2018-09-28T14:41:26.762Z,87.85
2018-09-28T14:42:36.918Z,87.95
2018-09-28T14:43:46.938Z,87.81
2018-09-28T14:44:57.055Z,87.61
2018-09-28T14:46:06.622Z,87.81
2018-09-28T14:47:16.816Z,88
2018-09-28T14:48:28.288Z,88
2018-09-28T14:49:38.977Z,88
2018-09-28T14:50:49.301Z,87.81
2018-09-28T14:51:59.744Z,88.39
2018-09-28T14:53:09.884Z,87.9
2018-09-28T14:54:20.158Z,87.9
2018-09-28T14:55:30.536Z,88.19
2018-09-28T14:56:40.727Z,88.15
2018-09-28T14:57:51.416Z,87.96
2018-09-28T14:59:01.522Z,88.15
2018-09-28T15:00:11.845Z,88.15
2018-09-28T15:01:22.621Z,88.54
2018-09-28T15:02:33.706Z,88.15
2018-09-28T15:03:44.247Z,88.24
2018-09-28T15:04:54.351Z,88.34
2018-09-28T15:06:04.482Z,88.2
2018-09-28T15:07:14.696Z,87.91
2018-09-28T15:08:24.960Z,88.1
2018-09-28T15:09:35.491Z,88.01
2018-09-28T15:10:45.632Z,87.91
2018-09-28T15:11:55.554Z,88.4
2018-09-28T15:13:05.646Z,88.59
2018-09-28T15:14:15.845Z,88.3
2018-09-28T15:15:26.443Z,88.79
2018-09-28T15:16:36.761Z,88.3
2018-09-28T15:17:47.112Z,88.01
2018-09-28T15:18:57.215Z,88.1
2018-09-28T15:20:07.333Z,88.16
2018-09-28T15:21:17.426Z,88.16
2018-09-28T15:22:27.499Z,88.55
2018-09-28T15:23:37.657Z,88.55
2018-09-28T15:24:47.499Z,88.84
2018-09-28T15:25:57.589Z,88.93
2018-09-28T15:27:07.702Z,88.16
2018-09-28T15:28:17.808Z,88.26
2018-09-28T15:29:27.968Z,88.41
2018-09-28T15:30:38.203Z,88.26
2018-09-28T15:31:48.317Z,88.31
2018-09-28T15:32:58.409Z,88.41
2018-09-28T15:34:08.508Z,89.18
2018-09-28T15:35:18.788Z,88.79
2018-09-28T15:36:29.248Z,88.89
2018-09-28T15:37:39.082Z,88.6
2018-09-28T15:38:49.168Z,88.89
2018-09-28T15:39:59.246Z,88.7
2018-09-28T15:41:09.286Z,89.18
2018-09-28T15:42:19.393Z,89.14
2018-09-28T15:43:29.540Z,89.04
2018-09-28T15:44:39.377Z,88.95
2018-09-28T15:45:49.484Z,88.95
2018-09-28T15:46:59.581Z,88.95